createdAt,value
2016-01-16T12:13:50.019Z,20
2016-01-16T12:14:49.974Z,72
2016-01-16T12:15:50.025Z,76
2016-01-16T12:16:50.058Z,84
2016-01-16T12:17:50.093Z,96
2016-01-16T12:18:50.157Z,116
2016-01-16T12:19:50.223Z,132
2016-01-16T12:20:50.241Z,156
2016-01-16T12:21:50.229Z,136
2016-01-16T12:22:50.293Z,112
2016-01-16T12:23:50.327Z,116
2016-01-16T12:24:50.393Z,168
2016-01-16T12:25:50.427Z,140
2016-01-16T12:26:50.476Z,140
2016-01-16T12:27:50.510Z,140
2016-01-16T12:28:50.591Z,124
2016-01-16T12:29:50.579Z,112
2016-01-16T12:30:50.643Z,120
2016-01-16T12:31:50.708Z,100
2016-01-16T12:32:50.727Z,112
2016-01-16T12:33:50.762Z,128
2016-01-16T12:34:50.842Z,108
2016-01-16T12:35:51.079Z,112
2016-01-16T12:36:50.941Z,112
2016-01-16T12:37:50.959Z,124
2016-01-16T12:38:51.009Z,108
2016-01-16T12:39:51.027Z,112
2016-01-16T12:40:51.077Z,116
2016-01-16T12:41:51.111Z,124
2016-01-16T12:42:51.191Z,108
2016-01-16T12:43:51.241Z,104
2016-01-16T12:44:51.244Z,108
2016-01-16T12:45:51.277Z,108
2016-01-16T12:46:51.343Z,100
2016-01-16T12:47:51.361Z,104
2016-01-16T12:48:51.427Z,112
2016-01-16T12:49:51.444Z,116
2016-01-16T12:50:51.494Z,108
2016-01-16T12:51:51.528Z,112
2016-01-16T12:52:50.813Z,128
2016-01-16T12:53:51.612Z,136
2016-01-16T12:54:51.708Z,128
2016-01-16T12:55:51.774Z,108
2016-01-16T12:56:51.745Z,104
2016-01-16T12:57:51.794Z,96
2016-01-16T12:58:51.829Z,108
2016-01-16T12:59:51.878Z,112
2016-01-16T13:00:51.927Z,104
2016-01-16T13:01:52.009Z,104
2016-01-16T13:02:51.915Z,108
2016-01-16T13:03:52.026Z,120
2016-01-16T13:04:52.076Z,128
2016-01-16T13:05:52.157Z,120
2016-01-16T13:06:52.175Z,128
2016-01-16T13:07:52.240Z,180
2016-01-16T13:08:52.290Z,148
2016-01-16T13:09:52.356Z,148
2016-01-16T13:10:52.358Z,164
2016-01-16T13:11:52.423Z,188
2016-01-16T13:12:52.442Z,176
2016-01-16T13:13:52.507Z,172
2016-01-16T13:14:52.509Z,276
2016-01-16T13:15:52.575Z,212
2016-01-16T13:16:52.625Z,260
2016-01-16T13:17:52.658Z,220
2016-01-16T13:18:52.692Z,228
2016-01-16T13:19:52.555Z,220
2016-01-16T13:20:52.730Z,232
2016-01-16T13:21:52.811Z,240
2016-01-16T13:22:52.874Z,200
2016-01-16T13:23:52.925Z,228
2016-01-16T13:24:52.911Z,264
2016-01-16T13:25:52.977Z,284
2016-01-16T13:26:53.010Z,276
2016-01-16T13:27:53.076Z,204
2016-01-16T13:28:53.110Z,328
2016-01-16T13:29:53.175Z,276
2016-01-16T13:30:53.177Z,268
2016-01-16T13:31:53.227Z,272
2016-01-16T13:32:53.277Z,300
2016-01-16T13:33:53.327Z,412
2016-01-16T13:34:53.392Z,372
2016-01-16T13:35:53.410Z,432
2016-01-16T13:36:53.459Z,256
2016-01-16T13:37:53.493Z,220
2016-01-16T13:38:53.528Z,200
2016-01-16T13:39:53.593Z,312
2016-01-16T13:40:53.704Z,244
2016-01-16T13:41:53.676Z,208
2016-01-16T13:42:53.726Z,168
2016-01-16T13:43:53.775Z,200
2016-01-16T13:44:53.778Z,164
2016-01-16T13:45:53.843Z,172
2016-01-16T13:46:53.909Z,188
2016-01-16T13:47:53.927Z,192
2016-01-16T13:48:53.945Z,184
2016-01-16T13:49:54.025Z,192
2016-01-16T13:50:54.044Z,184
2016-01-16T13:51:54.078Z,180
2016-01-16T13:52:54.127Z,184
2016-01-16T13:53:54.146Z,200
2016-01-16T13:54:54.211Z,204
2016-01-16T13:55:54.291Z,208
2016-01-16T13:56:54.279Z,168
2016-01-16T13:57:54.344Z,148
2016-01-16T13:58:54.362Z,140
2016-01-16T13:59:54.427Z,136
2016-01-16T14:00:54.462Z,140
2016-01-16T14:01:54.496Z,132
2016-01-16T14:02:54.529Z,140
2016-01-16T14:03:54.595Z,128
2016-01-16T14:04:54.629Z,120
2016-01-16T14:05:54.679Z,108
2016-01-16T14:06:54.743Z,104
2016-01-16T14:07:54.762Z,88
2016-01-16T14:08:54.780Z,76
2016-01-16T14:09:54.846Z,68
2016-01-16T14:10:54.910Z,72
2016-01-16T14:11:54.945Z,76
2016-01-16T14:12:54.995Z,80
2016-01-16T14:13:55.013Z,76
2016-01-16T14:14:55.062Z,88
2016-01-16T14:15:55.112Z,84
2016-01-16T14:16:55.162Z,76
2016-01-16T14:17:55.242Z,72
2016-01-16T14:18:55.260Z,68
2016-01-16T14:19:55.279Z,72
2016-01-16T14:20:55.312Z,80
2016-01-16T14:21:55.346Z,76
2016-01-16T14:22:55.412Z,76
2016-01-16T14:23:55.461Z,72
2016-01-16T14:24:55.480Z,76
2016-01-16T14:25:55.560Z,76
2016-01-16T14:26:55.578Z,68
2016-01-16T14:27:55.644Z,64
2016-01-16T14:28:55.662Z,72
2016-01-16T14:29:55.696Z,76
2016-01-16T14:30:55.761Z,76
2016-01-16T14:31:55.780Z,76
2016-01-16T14:32:55.860Z,44
2016-01-16T14:33:55.879Z,56
2016-01-16T14:34:55.913Z,56
2016-01-16T14:35:55.962Z,52
2016-01-16T14:36:55.980Z,44
2016-01-16T14:37:56.030Z,40
2016-01-16T14:38:56.127Z,40
2016-01-16T14:39:56.113Z,40
2016-01-16T14:40:56.178Z,40
2016-01-16T14:41:56.198Z,36
2016-01-16T14:42:56.262Z,40
2016-01-16T14:43:56.311Z,36
2016-01-16T14:44:56.346Z,32
2016-01-16T14:45:56.365Z,28
2016-01-16T14:46:56.414Z,28
2016-01-16T14:47:56.463Z,36
2016-01-16T14:48:56.528Z,32
2016-01-16T14:49:56.562Z,36
2016-01-16T14:50:56.580Z,36
2016-01-16T14:51:56.630Z,48
2016-01-16T14:52:56.680Z,48
2016-01-16T14:53:56.744Z,60
2016-01-16T14:54:56.763Z,64
2016-01-16T14:55:56.813Z,68
2016-01-16T14:56:56.847Z,64
2016-01-16T14:57:56.912Z,48
2016-01-16T14:58:56.993Z,40
2016-01-16T14:59:56.964Z,48
2016-01-16T15:00:57.030Z,52
2016-01-16T15:01:57.064Z,40
2016-01-16T15:02:57.144Z,44
2016-01-16T15:03:57.163Z,32
2016-01-16T15:04:57.213Z,36
2016-01-16T15:05:57.215Z,44
2016-01-16T15:06:57.264Z,68
2016-01-16T15:07:57.298Z,56
2016-01-16T15:08:57.379Z,60
2016-01-16T15:09:57.413Z,56
2016-01-16T15:10:57.462Z,68
2016-01-16T15:11:57.465Z,80
2016-01-16T15:12:57.499Z,72
2016-01-16T15:13:57.596Z,60
2016-01-16T15:14:57.614Z,48
2016-01-16T15:15:57.710Z,52
2016-01-16T15:16:57.713Z,48
2016-01-16T15:17:57.762Z,32
2016-01-16T15:18:57.765Z,40
2016-01-16T15:19:57.815Z,44
2016-01-16T15:20:57.865Z,40
2016-01-16T15:21:57.930Z,36
2016-01-16T15:22:57.948Z,32
2016-01-16T15:23:57.982Z,28
2016-01-16T15:24:58.016Z,28
2016-01-16T15:25:58.097Z,28
2016-01-16T15:26:58.131Z,24
2016-01-16T15:27:58.196Z,52
2016-01-16T15:28:58.183Z,48
2016-01-16T15:29:58.263Z,48
2016-01-16T15:30:58.297Z,48
2016-01-16T15:31:58.347Z,44
2016-01-16T15:32:58.428Z,44
2016-01-16T15:33:58.430Z,44
2016-01-16T15:34:58.449Z,48
2016-01-16T15:35:58.498Z,44
2016-01-16T15:36:58.532Z,48
2016-01-16T15:37:58.613Z,48
2016-01-16T15:38:58.663Z,48
2016-01-16T15:39:58.774Z,44
2016-01-16T15:40:58.746Z,44
2016-01-16T15:41:58.765Z,52
2016-01-16T15:42:59.658Z,56
2016-01-16T15:43:58.880Z,60
2016-01-16T15:44:58.913Z,60
2016-01-16T15:45:58.963Z,68
2016-01-16T15:46:58.997Z,68
2016-01-16T15:47:59.218Z,64
2016-01-16T15:48:59.128Z,60
2016-01-16T15:49:59.131Z,60
2016-01-16T15:50:59.179Z,60
2016-01-16T15:51:59.198Z,60
2016-01-16T15:52:59.388Z,56
2016-01-16T15:53:59.328Z,56
2016-01-16T15:54:59.347Z,56
2016-01-16T15:55:59.411Z,52
2016-01-16T15:56:59.664Z,56
2016-01-16T15:57:59.558Z,52
2016-01-16T15:58:59.404Z,48
2016-01-16T15:59:59.564Z,48
2016-01-16T16:00:59.613Z,48
2016-01-16T16:01:59.694Z,48
2016-01-16T16:02:59.712Z,44
2016-01-16T16:03:59.824Z,40
2016-01-16T16:04:59.780Z,44
2016-01-16T16:05:59.844Z,40
2016-01-16T16:06:59.973Z,40
2016-01-16T16:07:59.866Z,40
2016-01-16T16:08:59.947Z,40
2016-01-16T16:10:00.012Z,40
2016-01-16T16:11:00.046Z,40
2016-01-16T16:12:00.095Z,40
2016-01-16T16:13:00.176Z,40
2016-01-16T16:13:59.991Z,40
2016-01-16T16:15:00.182Z,36
2016-01-16T16:16:00.262Z,36
2016-01-16T16:17:00.296Z,40
2016-01-16T16:18:00.284Z,40
2016-01-16T16:19:00.426Z,40
2016-01-16T16:20:00.395Z,36
2016-01-16T16:21:00.258Z,36
2016-01-16T16:22:00.510Z,36
2016-01-16T16:23:00.529Z,36
2016-01-16T16:24:00.938Z,40
2016-01-16T16:25:00.847Z,36
2016-01-16T16:26:00.943Z,36
2016-01-16T16:27:02.479Z,40
2016-01-16T16:28:00.809Z,40
2016-01-16T16:29:02.014Z,36
2016-01-16T16:30:01.705Z,40
2016-01-16T16:31:00.973Z,36
2016-01-16T16:32:01.007Z,40
2016-01-16T16:33:00.979Z,40
2016-01-16T16:34:00.982Z,40
2016-01-16T16:35:01.218Z,40
2016-01-16T16:36:01.034Z,36
2016-01-16T16:37:01.145Z,36
2016-01-16T16:38:01.118Z,40
2016-01-16T16:39:01.198Z,36
2016-01-16T16:40:01.342Z,36
2016-01-16T16:41:01.328Z,40
2016-01-16T16:42:01.331Z,36
2016-01-16T16:43:02.067Z,36
2016-01-16T16:44:01.478Z,40
2016-01-16T16:45:01.730Z,44
2016-01-16T16:46:01.670Z,44
2016-01-16T16:47:02.017Z,44
2016-01-16T16:48:01.567Z,40
2016-01-16T16:49:01.756Z,40
2016-01-16T16:50:01.869Z,44
2016-01-16T16:51:01.825Z,44
2016-01-16T16:52:01.889Z,44
2016-01-16T16:53:01.800Z,40
2016-01-16T16:54:01.911Z,40
2016-01-16T16:55:01.898Z,44
2016-01-16T16:56:01.901Z,44
2016-01-16T16:57:02.061Z,44
2016-01-16T16:58:01.984Z,44
2016-01-16T16:59:02.018Z,44
2016-01-16T17:00:02.069Z,40
2016-01-16T17:01:02.118Z,44
2016-01-16T17:02:02.152Z,44
2016-01-16T17:03:02.204Z,44
2016-01-16T17:04:02.286Z,44
2016-01-16T17:05:02.273Z,44
2016-01-16T17:06:02.338Z,44
2016-01-16T17:07:02.372Z,44
2016-01-16T17:08:02.422Z,44
2016-01-16T17:09:02.487Z,44
2016-01-16T17:10:02.490Z,44
2016-01-16T17:11:02.555Z,44
2016-01-16T17:12:02.589Z,44
2016-01-16T17:13:02.639Z,44
2016-01-16T17:14:02.672Z,44
2016-01-16T17:15:02.722Z,40
2016-01-16T17:16:02.740Z,44
2016-01-16T17:17:02.789Z,44
2016-01-16T17:18:02.839Z,44
2016-01-16T17:19:02.888Z,40
2016-01-16T17:20:02.922Z,44
2016-01-16T17:21:02.989Z,44
2016-01-16T17:22:02.990Z,48
2016-01-16T17:23:03.055Z,48
2016-01-16T17:24:03.105Z,44
2016-01-16T17:25:03.155Z,44
2016-01-16T17:26:03.173Z,44
2016-01-16T17:27:03.238Z,40
2016-01-16T17:28:03.257Z,44
2016-01-16T17:29:03.338Z,44
2016-01-16T17:30:03.325Z,44
2016-01-16T17:31:03.390Z,44
2016-01-16T17:32:03.424Z,44
2016-01-16T17:33:03.551Z,48
2016-01-16T17:34:03.554Z,44
2016-01-16T17:35:03.635Z,44
2016-01-16T17:36:03.669Z,44
2016-01-16T17:37:03.672Z,44
2016-01-16T17:38:03.706Z,44
2016-01-16T17:39:03.755Z,44
2016-01-16T17:40:03.774Z,44
2016-01-16T17:41:03.839Z,44
2016-01-16T17:42:03.872Z,44
2016-01-16T17:43:03.970Z,44
2016-01-16T17:44:03.972Z,44
2016-01-16T17:45:04.225Z,44
2016-01-16T17:46:03.352Z,44
2016-01-16T17:47:04.105Z,44
2016-01-16T17:48:04.139Z,44
2016-01-16T17:49:04.188Z,44
2016-01-16T17:50:04.253Z,44
2016-01-16T17:51:04.553Z,44
2016-01-16T17:52:04.322Z,44
2016-01-16T17:53:04.371Z,44
2016-01-16T17:54:04.437Z,44
2016-01-16T17:55:04.611Z,44
2016-01-16T17:56:04.551Z,44
2016-01-16T17:57:05.319Z,44
2016-01-16T17:58:04.650Z,44
2016-01-16T17:59:04.747Z,44
2016-01-16T18:00:04.655Z,44
2016-01-16T18:01:04.705Z,44
2016-01-16T18:02:04.724Z,44
2016-01-16T18:03:04.789Z,44
2016-01-16T18:04:04.932Z,44
2016-01-16T18:05:04.919Z,44
2016-01-16T18:06:04.968Z,44
2016-01-16T18:07:05.019Z,44
2016-01-16T18:08:05.005Z,44
2016-01-16T18:09:05.040Z,44
2016-01-16T18:10:05.135Z,44
2016-01-16T18:11:05.089Z,44
2016-01-16T18:12:05.155Z,44
2016-01-16T18:13:05.188Z,40
2016-01-16T18:14:05.254Z,44
2016-01-16T18:15:05.256Z,44
2016-01-16T18:16:05.306Z,44
2016-01-16T18:17:05.355Z,40
2016-01-16T18:18:05.421Z,40
2016-01-16T18:19:05.454Z,40
2016-01-16T18:20:05.519Z,44
2016-01-16T18:21:05.506Z,40
2016-01-16T18:22:05.556Z,44
2016-01-16T18:23:05.590Z,44
2016-01-16T18:24:05.639Z,44
2016-01-16T18:25:05.689Z,40
2016-01-16T18:26:05.723Z,44
2016-01-16T18:27:05.758Z,40
2016-01-16T18:28:05.823Z,44
2016-01-16T18:29:05.856Z,40
2016-01-16T18:30:05.905Z,40
2016-01-16T18:31:05.925Z,40
2016-01-16T18:32:05.989Z,40
2016-01-16T18:33:06.024Z,40
2016-01-16T18:34:06.089Z,44
2016-01-16T18:35:06.138Z,40
2016-01-16T18:36:06.172Z,40
2016-01-16T18:37:06.191Z,40
2016-01-16T18:38:06.240Z,40
2016-01-16T18:39:06.289Z,40
2016-01-16T18:40:06.339Z,40
2016-01-16T18:41:06.388Z,40
2016-01-16T18:42:06.407Z,40
2016-01-16T18:43:06.488Z,40
2016-01-16T18:44:06.474Z,40
2016-01-16T18:45:06.540Z,40
2016-01-16T18:46:06.573Z,36
2016-01-16T18:47:06.639Z,40
2016-01-16T18:48:06.673Z,44
2016-01-16T18:49:06.737Z,40
2016-01-16T18:50:06.741Z,40
2016-01-16T18:51:06.806Z,40
2016-01-16T18:52:06.684Z,40
2016-01-16T18:53:06.890Z,40
2016-01-16T18:54:06.924Z,40
2016-01-16T18:55:06.958Z,40
2016-01-16T18:56:07.023Z,40
2016-01-16T18:57:07.057Z,40
2016-01-16T18:58:07.092Z,36
2016-01-16T18:59:07.157Z,40
2016-01-16T19:00:07.191Z,36
2016-01-16T19:01:07.287Z,40
2016-01-16T19:02:07.274Z,40
2016-01-16T19:03:07.309Z,40
2016-01-16T19:04:07.373Z,40
2016-01-16T19:05:07.439Z,40
2016-01-16T19:06:21.567Z,40
2016-01-16T19:07:07.475Z,40
2016-01-16T19:08:07.509Z,40
2016-01-16T19:09:07.590Z,40
2016-01-16T19:10:07.640Z,40
2016-01-16T19:11:07.642Z,40
2016-01-16T19:12:07.708Z,40
2016-01-16T19:13:07.725Z,40
2016-01-16T19:14:07.791Z,40
2016-01-16T19:15:07.825Z,40
2016-01-16T19:16:07.875Z,40
2016-01-16T19:17:07.939Z,40
2016-01-16T19:18:07.958Z,40
2016-01-16T19:19:08.007Z,40
2016-01-16T19:20:08.058Z,40
2016-01-16T19:21:08.091Z,40
2016-01-16T19:22:08.141Z,40
2016-01-16T19:23:08.175Z,40
2016-01-16T19:24:08.241Z,44
2016-01-16T19:25:08.259Z,40
2016-01-16T19:26:08.308Z,40
2016-01-16T19:27:08.326Z,40
2016-01-16T19:28:08.392Z,40
2016-01-16T19:29:08.472Z,44
2016-01-16T19:30:08.522Z,44
2016-01-16T19:31:08.510Z,44
2016-01-16T19:32:08.575Z,40
2016-01-16T19:33:08.640Z,40
2016-01-16T19:34:08.658Z,40
2016-01-16T19:35:08.708Z,40
2016-01-16T19:36:08.726Z,40
2016-01-16T19:37:08.776Z,40
2016-01-16T19:38:08.810Z,40
2016-01-16T19:39:08.860Z,40
2016-01-16T19:40:08.909Z,40
2016-01-16T19:41:08.943Z,40
2016-01-16T19:42:08.993Z,44
2016-01-16T19:43:09.010Z,44
2016-01-16T19:44:09.059Z,40
2016-01-16T19:45:09.095Z,44
2016-01-16T19:46:09.143Z,40
2016-01-16T19:47:09.192Z,40
2016-01-16T19:48:09.258Z,40
2016-01-16T19:49:09.276Z,44
2016-01-16T19:50:09.357Z,40
2016-01-16T19:51:09.344Z,44
2016-01-16T19:52:09.425Z,40
2016-01-16T19:53:09.444Z,40
2016-01-16T19:54:09.524Z,40
2016-01-16T19:55:09.574Z,44
2016-01-16T19:56:09.577Z,40
2016-01-16T19:57:09.611Z,40
2016-01-16T19:58:09.660Z,40
2016-01-16T19:59:09.725Z,44
2016-01-16T20:00:09.744Z,44
2016-01-16T20:01:09.809Z,40
2016-01-16T20:02:09.858Z,44
2016-01-16T20:03:09.908Z,40
2016-01-16T20:04:09.942Z,40
2016-01-16T20:05:09.977Z,40
2016-01-16T20:06:09.994Z,44
2016-01-16T20:07:10.091Z,40
2016-01-16T20:08:10.110Z,40
2016-01-16T20:09:09.987Z,40
2016-01-16T20:10:10.224Z,44
2016-01-16T20:11:10.242Z,40
2016-01-16T20:12:10.276Z,40
2016-01-16T20:13:10.326Z,40
2016-01-16T20:14:10.359Z,40
2016-01-16T20:15:10.425Z,40
2016-01-16T20:16:10.615Z,40
2016-01-16T20:17:10.555Z,44
2016-01-16T20:18:10.524Z,44
2016-01-16T20:19:10.562Z,40
2016-01-16T20:20:10.617Z,40
2016-01-16T20:21:10.623Z,44
2016-01-16T20:22:10.661Z,44
2016-01-16T20:23:10.731Z,40
2016-01-16T20:24:10.715Z,40
2016-01-16T20:25:10.776Z,40
2016-01-16T20:26:10.869Z,44
2016-01-16T20:27:10.837Z,40
2016-01-16T20:28:10.898Z,40
2016-01-16T20:29:10.962Z,44
2016-01-16T20:30:11.088Z,40
2016-01-16T20:31:11.057Z,44
2016-01-16T20:32:11.044Z,40
2016-01-16T20:33:11.123Z,44
2016-01-16T20:34:11.125Z,40
2016-01-16T20:35:11.237Z,40
2016-01-16T20:36:11.474Z,44
2016-01-16T20:37:11.273Z,40
2016-01-16T20:38:11.307Z,44
2016-01-16T20:39:11.418Z,44
2016-01-16T20:40:11.389Z,44
2016-01-16T20:41:11.407Z,44
2016-01-16T20:42:11.471Z,40
2016-01-16T20:43:11.521Z,40
2016-01-16T20:44:11.571Z,44
2016-01-16T20:45:11.589Z,40
2016-01-16T20:46:11.670Z,40
2016-01-16T20:47:11.673Z,44
2016-01-16T20:48:11.753Z,40
2016-01-16T20:49:11.771Z,44
2016-01-16T20:50:11.837Z,40
2016-01-16T20:51:11.855Z,40
2016-01-16T20:52:11.890Z,40
2016-01-16T20:53:11.939Z,40
2016-01-16T20:54:11.973Z,40
2016-01-16T20:55:12.038Z,40
2016-01-16T20:56:12.056Z,40
2016-01-16T20:57:12.153Z,36
2016-01-16T20:58:12.156Z,40
2016-01-16T20:59:12.251Z,40
2016-01-16T21:00:12.254Z,36
2016-01-16T21:01:12.320Z,36
2016-01-16T21:02:12.338Z,36
2016-01-16T21:03:12.372Z,36
2016-01-16T21:04:12.436Z,40
2016-01-16T21:05:12.455Z,36
2016-01-16T21:06:12.505Z,40
2016-01-16T21:07:12.585Z,36
2016-01-16T21:08:12.572Z,36
2016-01-16T21:09:12.622Z,36
2016-01-16T21:10:12.641Z,36
2016-01-16T21:11:12.674Z,36
2016-01-16T21:12:12.740Z,36
2016-01-16T21:13:12.821Z,40
2016-01-16T21:14:12.808Z,36
2016-01-16T21:15:12.873Z,36
2016-01-16T21:16:12.907Z,36
2016-01-16T21:17:12.941Z,36
2016-01-16T21:18:13.006Z,40
2016-01-16T21:19:13.055Z,36
2016-01-16T21:20:13.090Z,36
2016-01-16T21:21:13.092Z,40
2016-01-16T21:22:13.157Z,36
2016-01-16T21:23:13.190Z,36
2016-01-16T21:24:13.225Z,36
2016-01-16T21:25:13.306Z,36
2016-01-16T21:26:13.323Z,36
2016-01-16T21:27:13.373Z,36
2016-01-16T21:28:13.439Z,40
2016-01-16T21:29:13.489Z,36
2016-01-16T21:30:13.491Z,36
2016-01-16T21:31:13.431Z,40
2016-01-16T21:32:13.606Z,40
2016-01-16T21:33:16.687Z,40
2016-01-16T21:34:13.705Z,40
2016-01-16T21:35:13.708Z,36
2016-01-16T21:36:13.758Z,36
2016-01-16T21:37:13.792Z,36
2016-01-16T21:38:13.841Z,36
2016-01-16T21:39:13.859Z,40
2016-01-16T21:40:13.971Z,36
2016-01-16T21:41:13.944Z,36
2016-01-16T21:42:14.008Z,40
2016-01-16T21:43:14.041Z,36
2016-01-16T21:44:14.107Z,36
2016-01-16T21:45:14.172Z,40
2016-01-16T21:46:14.190Z,40
2016-01-16T21:47:14.255Z,36
2016-01-16T21:48:14.258Z,36
2016-01-16T21:49:14.293Z,36
2016-01-16T21:50:14.388Z,36
2016-01-16T21:51:14.438Z,40
2016-01-16T21:52:14.473Z,40
2016-01-16T21:53:14.491Z,40
2016-01-16T21:54:14.540Z,40
2016-01-16T21:55:14.621Z,40
2016-01-16T21:56:14.639Z,40
2016-01-16T21:57:14.657Z,40
2016-01-16T21:58:14.723Z,40
2016-01-16T21:59:14.742Z,36
2016-01-16T22:00:14.838Z,40
2016-01-16T22:01:14.809Z,0
2016-01-16T22:02:14.858Z,0
2016-01-16T22:03:14.909Z,0
2016-01-16T22:04:14.958Z,0
2016-01-16T22:05:14.991Z,0
2016-01-16T22:06:15.057Z,0
2016-01-16T22:07:15.122Z,0
2016-01-16T22:08:15.155Z,0
2016-01-16T22:09:15.143Z,0
2016-01-16T22:10:15.177Z,0
2016-01-16T22:11:15.242Z,0
2016-01-16T22:12:15.276Z,0
2016-01-16T22:13:15.357Z,0
2016-01-16T22:14:15.344Z,0
2016-01-16T22:15:15.409Z,0
2016-01-16T22:16:15.458Z,0
2016-01-16T22:17:15.508Z,0
2016-01-16T22:18:15.746Z,0
2016-01-16T22:19:15.638Z,0
2016-01-16T22:20:15.719Z,0
2016-01-16T22:21:15.691Z,0
2016-01-16T22:22:15.694Z,0
2016-01-16T22:23:15.837Z,0
2016-01-16T22:24:15.824Z,0
2016-01-16T22:25:15.874Z,0
2016-01-16T22:26:15.892Z,0
2016-01-16T22:27:15.988Z,0
2016-01-16T22:28:15.960Z,0
2016-01-16T22:29:16.103Z,0
2016-01-16T22:30:16.043Z,0
2016-01-16T22:31:16.123Z,0
2016-01-16T22:32:16.206Z,0
2016-01-16T22:33:16.395Z,0
2016-01-16T22:34:16.242Z,0
2016-01-16T22:35:16.276Z,0
2016-01-16T22:36:16.294Z,0
2016-01-16T22:37:16.422Z,0
2016-01-16T22:38:16.378Z,0
2016-01-16T22:39:16.475Z,0
2016-01-16T22:40:16.492Z,0
2016-01-16T22:41:16.525Z,0
2016-01-16T22:42:16.560Z,0
2016-01-16T22:43:16.610Z,0
2016-01-16T22:44:16.675Z,0
2016-01-16T22:45:16.693Z,0
2016-01-16T22:46:16.930Z,0
2016-01-16T22:47:16.777Z,0
2016-01-16T22:48:16.827Z,0
2016-01-16T22:49:16.891Z,0
2016-01-16T22:50:16.957Z,0
2016-01-16T22:51:16.913Z,0
2016-01-16T22:52:17.072Z,0
2016-01-16T22:53:17.010Z,0
2016-01-16T22:54:17.184Z,0
2016-01-16T22:55:17.124Z,0
2016-01-16T22:56:17.174Z,0
2016-01-16T22:57:17.254Z,0
2016-01-16T22:58:17.319Z,0
2016-01-16T22:59:17.322Z,0
2016-01-16T23:00:17.309Z,0
2016-01-16T23:01:17.359Z,0
2016-01-16T23:02:17.393Z,0
2016-01-16T23:03:17.495Z,0
2016-01-16T23:04:17.544Z,0
2016-01-16T23:05:17.532Z,0
2016-01-16T23:06:17.597Z,0
2016-01-16T23:07:17.521Z,0
2016-01-16T23:08:17.727Z,0
2016-01-16T23:09:17.761Z,0
2016-01-16T23:10:17.779Z,0
2016-01-16T23:11:17.767Z,0
2016-01-16T23:12:17.862Z,0
2016-01-16T23:13:17.881Z,0
2016-01-16T23:14:17.946Z,0
2016-01-16T23:15:18.012Z,0
2016-01-16T23:16:17.999Z,0
2016-01-16T23:17:18.033Z,0
2016-01-16T23:18:18.083Z,0
2016-01-16T23:19:18.164Z,0
2016-01-16T23:20:18.245Z,0
2016-01-16T23:21:18.451Z,0
2016-01-16T23:22:18.265Z,0
2016-01-16T23:23:18.300Z,0
2016-01-16T23:24:18.412Z,0
2016-01-16T23:25:18.399Z,0
2016-01-16T23:26:18.465Z,0
2016-01-16T23:27:18.545Z,0
2016-01-16T23:28:18.485Z,0
2016-01-16T23:29:18.582Z,0
2016-01-16T23:30:18.601Z,0
2016-01-16T23:31:18.603Z,0
2016-01-16T23:32:18.793Z,0
2016-01-16T23:33:18.795Z,0
2016-01-16T23:34:18.830Z,0
2016-01-16T23:35:18.816Z,0
2016-01-16T23:36:18.866Z,0
2016-01-16T23:37:18.948Z,0
2016-01-16T23:38:19.012Z,0
2016-01-16T23:39:18.936Z,0
2016-01-16T23:40:19.065Z,0
2016-01-16T23:41:19.130Z,0
2016-01-16T23:42:19.133Z,0
2016-01-16T23:43:19.167Z,0
2016-01-16T23:44:19.247Z,0
2016-01-16T23:45:19.296Z,0
2016-01-16T23:46:19.315Z,0
2016-01-16T23:47:19.366Z,0
2016-01-16T23:48:19.336Z,0
2016-01-16T23:49:19.386Z,0
2016-01-16T23:50:19.435Z,0
2016-01-16T23:51:19.532Z,0
2016-01-16T23:52:19.566Z,0
2016-01-16T23:53:19.584Z,0
2016-01-16T23:54:19.618Z,0
2016-01-16T23:55:19.730Z,0
2016-01-16T23:56:19.686Z,0
2016-01-16T23:57:19.720Z,0
2016-01-16T23:58:19.769Z,0
2016-01-16T23:59:19.787Z,0
